Search for airport 
image banner adimage banner adimage banner ad
image banner ad

CN33 - Airport Imperial Bldg Helistop

Located in El Segundo, United States

ICAO - CN33, IATA -

Data provided by Airmate  

General information

Coordinates: N33°55'49" W118°23'49"
Elevation is 238 feet MSL.
Magnetic variation is 14° East
View others Airports in California

Operational data

Special qualification required
Current time UTC:
Current local time:
Weather at : KLAX - Los Angeles Intl ( 2 km )
METAR: KLAX 270353Z 27007KT 10SM BKN011 18/16 A2996 RMK AO2 SLP142 T01830161 $
TAF: KLAX 270345Z 2704/2806 26008KT P6SM OVC010 FM271000 VRB03KT P6SM OVC008 FM271600 26006KT P6SM BKN012 FM271800 26012KT P6SM SCT015
View NOTAMs / SUP AIP / TFR affecting this airport [VIEW]
Communications frequencies: [VIEW]

Runways:

Airport contact information

Address: El Segundo United States

Satellite view of CN33